createdAt,value
2018-09-30T00:02:16.480Z,6.40
2018-09-30T00:04:45.153Z,4.70
2018-09-30T00:07:12.680Z,7.37
2018-09-30T00:09:40.226Z,4.67
2018-09-30T00:12:07.934Z,4.00
2018-09-30T00:14:35.395Z,3.73
2018-09-30T00:17:02.928Z,7.70
2018-09-30T00:19:30.549Z,4.60
2018-09-30T00:21:58.033Z,6.10
2018-09-30T00:24:31.121Z,4.27
2018-09-30T00:26:59.993Z,7.13
2018-09-30T00:29:28.800Z,5.67
2018-09-30T00:31:56.752Z,5.87
2018-09-30T00:34:25.497Z,6.70
2018-09-30T00:36:54.231Z,4.73
2018-09-30T00:39:21.867Z,4.33
2018-09-30T00:41:49.432Z,8.63
2018-09-30T00:44:16.951Z,4.43
2018-09-30T00:46:44.484Z,4.33
2018-09-30T00:49:12.174Z,4.70
2018-09-30T00:51:39.669Z,11.07
2018-09-30T00:54:07.502Z,12.73
2018-09-30T00:56:35.039Z,9.13
2018-09-30T00:59:02.551Z,7.47
2018-09-30T01:01:30.194Z,6.23
2018-09-30T01:03:57.811Z,7.27
2018-09-30T01:06:25.375Z,6.60
2018-09-30T01:08:52.851Z,5.27
2018-09-30T01:11:20.537Z,5.60
2018-09-30T01:13:48.040Z,8.73
2018-09-30T01:16:15.962Z,7.20
2018-09-30T01:18:43.537Z,7.00
2018-09-30T01:21:11.095Z,4.53
2018-09-30T01:23:38.592Z,5.83
2018-09-30T01:26:06.226Z,6.80
2018-09-30T01:28:33.969Z,6.90
2018-09-30T01:31:01.446Z,4.33
2018-09-30T01:33:29.114Z,4.97
2018-09-30T01:35:56.676Z,4.20
2018-09-30T01:38:24.126Z,3.43
2018-09-30T01:40:51.664Z,6.23
2018-09-30T01:43:19.156Z,6.83
2018-09-30T01:45:46.673Z,3.87
2018-09-30T01:48:14.146Z,7.00
2018-09-30T01:50:41.596Z,5.77
2018-09-30T01:53:09.179Z,8.43
2018-09-30T01:55:36.671Z,6.90
2018-09-30T01:58:04.225Z,6.43
2018-09-30T02:00:33.197Z,7.33
2018-09-30T02:03:00.724Z,7.17
2018-09-30T02:05:28.240Z,5.17
2018-09-30T02:07:55.748Z,6.47
2018-09-30T02:10:23.230Z,8.80
2018-09-30T02:12:50.749Z,6.77
2018-09-30T02:15:18.245Z,6.47
2018-09-30T02:17:45.790Z,8.80
2018-09-30T02:20:13.365Z,7.03
2018-09-30T02:22:40.857Z,5.73
2018-09-30T02:25:08.416Z,6.03
2018-09-30T02:27:35.890Z,5.87
2018-09-30T02:30:04.615Z,5.40
2018-09-30T02:32:32.104Z,5.40
2018-09-30T02:34:59.637Z,9.13
2018-09-30T02:37:27.149Z,6.87
2018-09-30T02:39:54.672Z,8.83
2018-09-30T02:42:22.168Z,5.53
2018-09-30T02:44:49.651Z,4.97
2018-09-30T02:47:17.165Z,5.47
2018-09-30T02:49:44.749Z,10.90
2018-09-30T02:52:12.262Z,6.10
2018-09-30T02:54:39.852Z,5.30
2018-09-30T02:57:07.361Z,6.67
2018-09-30T02:59:34.950Z,6.23
2018-09-30T03:02:02.407Z,5.70
2018-09-30T03:04:29.977Z,7.13
2018-09-30T03:07:03.086Z,5.53
2018-09-30T03:09:30.592Z,7.00
2018-09-30T03:11:58.069Z,8.47
2018-09-30T03:14:25.598Z,6.00
2018-09-30T03:16:53.173Z,4.97
2018-09-30T03:19:20.697Z,4.23
2018-09-30T03:21:48.166Z,9.60
2018-09-30T03:24:15.656Z,8.10
2018-09-30T03:26:43.278Z,6.10
2018-09-30T03:29:11.074Z,7.33
2018-09-30T03:31:38.743Z,5.23
2018-09-30T03:34:06.549Z,5.83
2018-09-30T03:36:34.069Z,4.70
2018-09-30T03:39:01.580Z,7.97
2018-09-30T03:41:29.045Z,7.60
2018-09-30T03:43:56.549Z,6.80
2018-09-30T03:46:24.095Z,6.63
2018-09-30T03:48:51.529Z,5.60
2018-09-30T03:51:19.118Z,6.62
2018-09-30T03:53:46.614Z,5.77
2018-09-30T03:56:14.109Z,5.90
2018-09-30T03:58:41.738Z,8.07
2018-09-30T04:01:09.256Z,5.17
2018-09-30T04:03:36.775Z,5.33
2018-09-30T04:06:04.481Z,6.00
2018-09-30T04:08:32.007Z,5.73
2018-09-30T04:10:59.693Z,10.78
2018-09-30T04:13:27.411Z,5.50
2018-09-30T04:15:54.894Z,10.73
2018-09-30T04:18:22.613Z,10.77
2018-09-30T04:20:51.024Z,5.62
2018-09-30T04:23:18.530Z,5.10
2018-09-30T04:25:46.014Z,5.30
2018-09-30T04:28:13.487Z,4.83
2018-09-30T04:30:40.970Z,5.33
2018-09-30T04:33:08.590Z,5.33
2018-09-30T04:35:36.066Z,4.20
2018-09-30T04:38:03.560Z,5.50
2018-09-30T04:40:31.791Z,5.07
2018-09-30T04:42:59.309Z,6.93
2018-09-30T04:45:26.780Z,6.60
2018-09-30T04:47:54.334Z,6.25
2018-09-30T04:50:21.853Z,4.67
2018-09-30T04:52:49.505Z,4.97
2018-09-30T04:55:17.210Z,6.63
2018-09-30T04:57:45.000Z,4.85
2018-09-30T05:00:12.786Z,5.63
2018-09-30T05:02:40.274Z,6.60
2018-09-30T05:05:07.763Z,5.10
2018-09-30T05:07:35.536Z,13.30
2018-09-30T05:10:03.133Z,6.73
2018-09-30T05:12:30.736Z,5.17
2018-09-30T05:14:58.361Z,5.12
2018-09-30T05:17:25.958Z,4.37
2018-09-30T05:19:54.114Z,5.25
2018-09-30T05:22:21.710Z,8.77
2018-09-30T05:24:49.218Z,4.58
2018-09-30T05:27:16.712Z,7.67
2018-09-30T05:29:44.237Z,5.10
2018-09-30T05:32:11.777Z,6.30
2018-09-30T05:34:39.388Z,5.90
2018-09-30T05:37:06.893Z,9.27
2018-09-30T05:39:34.355Z,7.85
2018-09-30T05:42:01.936Z,10.78
2018-09-30T05:44:29.445Z,9.77
2018-09-30T05:46:56.943Z,7.93
2018-09-30T05:49:24.497Z,7.10
2018-09-30T05:51:51.958Z,8.83
2018-09-30T05:54:19.512Z,6.30
2018-09-30T05:56:47.061Z,5.27
2018-09-30T05:59:14.550Z,7.97
2018-09-30T06:01:42.075Z,8.80
2018-09-30T06:04:10.321Z,5.43
2018-09-30T06:06:37.854Z,4.63
2018-09-30T06:09:08.318Z,4.80
2018-09-30T06:11:35.801Z,4.93
2018-09-30T06:14:03.432Z,6.90
2018-09-30T06:16:30.892Z,10.40
2018-09-30T06:18:58.402Z,8.13
2018-09-30T06:21:25.950Z,8.53
2018-09-30T06:23:53.492Z,6.50
2018-09-30T06:26:20.985Z,7.33
2018-09-30T06:28:48.491Z,9.13
2018-09-30T06:31:16.045Z,12.00
2018-09-30T06:33:43.485Z,12.60
2018-09-30T06:36:10.986Z,11.30
2018-09-30T06:38:38.745Z,11.53
2018-09-30T06:41:06.657Z,12.47
2018-09-30T06:43:34.114Z,12.83
2018-09-30T06:46:01.700Z,19.67
2018-09-30T06:48:29.373Z,24.90
2018-09-30T06:50:56.904Z,20.50
2018-09-30T06:53:24.440Z,23.23
2018-09-30T06:55:53.045Z,19.90
2018-09-30T06:58:20.675Z,18.90
2018-09-30T07:00:48.248Z,34.90
2018-09-30T07:03:15.754Z,25.40
2018-09-30T07:05:43.435Z,22.23
2018-09-30T07:08:11.104Z,22.43
2018-09-30T07:10:38.632Z,39.10
2018-09-30T07:13:06.251Z,30.47
2018-09-30T07:15:34.090Z,25.80
2018-09-30T07:18:01.686Z,14.63
2018-09-30T07:20:29.315Z,17.03
2018-09-30T07:22:56.967Z,16.23
2018-09-30T07:25:24.506Z,15.00
2018-09-30T07:27:52.102Z,20.30
2018-09-30T07:30:19.695Z,17.03
2018-09-30T07:32:47.413Z,14.43
2018-09-30T07:35:15.085Z,10.93
2018-09-30T07:37:42.741Z,19.90
2018-09-30T07:40:11.610Z,9.80
2018-09-30T07:42:39.644Z,10.73
2018-09-30T07:45:07.261Z,11.07
2018-09-30T07:47:34.851Z,6.40
2018-09-30T07:50:02.662Z,10.20
2018-09-30T07:52:31.312Z,10.30
2018-09-30T07:54:58.935Z,8.77
2018-09-30T07:57:26.496Z,8.17
2018-09-30T07:59:54.186Z,7.00
2018-09-30T08:02:21.772Z,8.37
2018-09-30T08:04:49.365Z,7.40
2018-09-30T08:07:17.347Z,6.87
2018-09-30T08:09:45.014Z,5.20
2018-09-30T08:12:12.552Z,6.20
2018-09-30T08:14:40.260Z,11.80
2018-09-30T08:17:07.895Z,6.53
2018-09-30T08:19:35.448Z,8.77
2018-09-30T08:22:03.149Z,9.63
2018-09-30T08:24:30.697Z,16.27
2018-09-30T08:26:58.564Z,7.73
2018-09-30T08:30:28.782Z,5.87
2018-09-30T08:32:56.415Z,9.27
2018-09-30T08:35:23.985Z,9.27
2018-09-30T08:37:57.238Z,7.40
2018-09-30T08:40:30.451Z,4.20
2018-09-30T08:42:58.074Z,2.87
2018-09-30T08:45:25.850Z,8.40
2018-09-30T08:47:53.360Z,10.60
2018-09-30T08:50:20.920Z,6.00
2018-09-30T08:52:48.538Z,6.47
2018-09-30T08:55:16.101Z,5.50
2018-09-30T08:57:43.726Z,4.13
2018-09-30T09:00:12.811Z,12.53
2018-09-30T09:02:40.419Z,10.47
2018-09-30T09:05:08.038Z,8.80
2018-09-30T09:07:35.663Z,3.73
2018-09-30T09:10:03.218Z,4.60
2018-09-30T09:12:30.773Z,5.77
2018-09-30T09:14:58.345Z,3.10
2018-09-30T09:17:25.879Z,5.50
2018-09-30T09:19:53.538Z,5.97
2018-09-30T09:22:21.220Z,5.23
2018-09-30T09:24:48.774Z,4.73
2018-09-30T09:27:16.356Z,6.93
2018-09-30T09:29:43.873Z,4.53
2018-09-30T09:32:11.462Z,4.77
2018-09-30T09:34:38.970Z,6.23
2018-09-30T09:37:06.564Z,6.50
2018-09-30T09:39:34.069Z,5.50
2018-09-30T09:42:02.474Z,10.47
2018-09-30T09:44:30.001Z,5.83
2018-09-30T09:46:57.674Z,4.37
2018-09-30T09:49:25.382Z,6.90
2018-09-30T09:51:52.954Z,4.20
2018-09-30T09:54:20.460Z,2.20
2018-09-30T09:56:47.950Z,4.23
2018-09-30T09:59:15.545Z,12.93
2018-09-30T10:01:43.078Z,5.43
2018-09-30T10:04:10.599Z,3.10
2018-09-30T10:06:38.136Z,4.27
2018-09-30T10:09:05.970Z,4.47
2018-09-30T10:11:33.502Z,7.37
2018-09-30T10:14:01.016Z,3.97
2018-09-30T10:16:28.622Z,5.13
2018-09-30T10:18:56.435Z,7.53
2018-09-30T10:21:24.096Z,5.43
2018-09-30T10:23:51.673Z,4.50
2018-09-30T10:26:19.222Z,4.23
2018-09-30T10:28:46.676Z,5.30
2018-09-30T10:31:14.291Z,4.10
2018-09-30T10:33:41.859Z,9.83
2018-09-30T10:36:09.637Z,5.10
2018-09-30T10:38:37.416Z,6.97
2018-09-30T10:41:04.975Z,5.23
2018-09-30T10:43:32.533Z,5.27
2018-09-30T10:46:00.041Z,6.93
2018-09-30T10:48:27.617Z,4.57
2018-09-30T10:50:55.388Z,5.73
2018-09-30T10:53:22.940Z,5.53
2018-09-30T10:55:50.587Z,4.23
2018-09-30T10:58:18.193Z,4.97
2018-09-30T11:00:45.855Z,5.80
2018-09-30T11:03:13.354Z,5.57
2018-09-30T11:05:41.029Z,6.33
2018-09-30T11:08:08.537Z,6.90
2018-09-30T11:10:36.049Z,6.17
2018-09-30T11:13:03.620Z,5.53
2018-09-30T11:15:31.102Z,3.20
2018-09-30T11:17:58.582Z,6.90
2018-09-30T11:20:26.061Z,12.40
2018-09-30T11:22:53.542Z,6.83
2018-09-30T11:25:21.109Z,4.90
2018-09-30T11:27:48.637Z,5.17
2018-09-30T11:30:16.134Z,4.73
2018-09-30T11:32:43.666Z,5.43
2018-09-30T11:35:11.191Z,6.77
2018-09-30T11:37:38.706Z,7.90
2018-09-30T11:40:06.260Z,4.00
2018-09-30T11:42:33.756Z,7.20
2018-09-30T11:45:01.304Z,4.30
2018-09-30T11:47:28.780Z,5.60
2018-09-30T11:49:56.312Z,3.33
2018-09-30T11:52:23.886Z,5.80
2018-09-30T11:54:51.464Z,5.20
2018-09-30T11:57:19.013Z,6.87
2018-09-30T11:59:46.477Z,6.43
2018-09-30T12:02:14.143Z,7.67
2018-09-30T12:04:41.620Z,4.83
2018-09-30T12:07:09.157Z,8.60
2018-09-30T12:09:36.769Z,4.30
2018-09-30T12:12:04.298Z,7.77
2018-09-30T12:14:31.819Z,8.53
2018-09-30T12:16:59.311Z,5.73
2018-09-30T12:19:26.846Z,3.27
2018-09-30T12:21:54.377Z,5.07
2018-09-30T12:24:22.015Z,5.60
2018-09-30T12:26:49.635Z,7.00
2018-09-30T12:29:17.242Z,6.97
2018-09-30T12:31:44.752Z,5.60
2018-09-30T12:34:12.390Z,5.77
2018-09-30T12:36:39.980Z,5.67
2018-09-30T12:39:08.452Z,5.03
2018-09-30T12:41:35.945Z,3.63
2018-09-30T12:44:03.471Z,6.90
2018-09-30T12:46:31.036Z,6.20
2018-09-30T12:48:58.548Z,5.40
2018-09-30T12:51:26.269Z,5.70
2018-09-30T12:53:53.751Z,6.23
2018-09-30T12:56:21.329Z,7.10
2018-09-30T12:58:48.944Z,6.27
2018-09-30T13:01:16.660Z,8.00
2018-09-30T13:03:44.339Z,4.53
2018-09-30T13:06:11.952Z,17.97
2018-09-30T13:08:41.670Z,9.10
2018-09-30T13:11:09.341Z,7.63
2018-09-30T13:13:36.859Z,5.07
2018-09-30T13:16:04.474Z,6.10
2018-09-30T13:18:31.965Z,6.10
2018-09-30T13:21:00.007Z,8.00
2018-09-30T13:23:27.554Z,4.70
2018-09-30T13:25:55.257Z,9.17
2018-09-30T13:28:22.955Z,5.43
2018-09-30T13:30:50.640Z,6.30
2018-09-30T13:33:18.311Z,5.70
2018-09-30T13:35:50.749Z,8.63
2018-09-30T13:38:22.716Z,5.13
2018-09-30T13:40:50.418Z,6.50
2018-09-30T13:43:17.861Z,9.00
2018-09-30T13:45:45.420Z,3.27
2018-09-30T13:48:12.926Z,5.13
2018-09-30T13:50:40.457Z,5.10
2018-09-30T13:53:08.041Z,7.30
2018-09-30T13:55:35.682Z,7.80
2018-09-30T13:58:03.243Z,6.60
2018-09-30T14:00:30.768Z,5.40
2018-09-30T14:02:58.339Z,5.63
2018-09-30T14:05:26.019Z,3.70
2018-09-30T14:07:53.529Z,6.30
2018-09-30T14:10:21.191Z,4.57
2018-09-30T14:12:48.712Z,5.97
2018-09-30T14:15:16.232Z,6.07
2018-09-30T14:17:43.779Z,4.40
2018-09-30T14:20:11.300Z,8.17
2018-09-30T14:22:38.967Z,3.97
2018-09-30T14:25:06.491Z,9.50
2018-09-30T14:27:34.104Z,4.27
2018-09-30T14:30:01.774Z,7.20
2018-09-30T14:32:30.040Z,6.10
2018-09-30T14:34:57.573Z,7.10
2018-09-30T14:37:25.097Z,5.60
2018-09-30T14:39:52.595Z,7.40
2018-09-30T14:42:20.212Z,3.43
2018-09-30T14:44:47.770Z,5.27
2018-09-30T14:47:15.369Z,6.23
2018-09-30T14:49:42.924Z,5.30
2018-09-30T14:52:10.463Z,7.30
2018-09-30T14:54:37.991Z,6.73
2018-09-30T14:57:05.519Z,10.63
2018-09-30T14:59:33.113Z,8.83
2018-09-30T15:02:00.924Z,8.63
2018-09-30T15:04:28.417Z,5.40
2018-09-30T15:06:55.898Z,3.90
2018-09-30T15:09:23.489Z,3.80
2018-09-30T15:11:51.035Z,4.87
2018-09-30T15:14:18.638Z,6.97
2018-09-30T15:16:46.210Z,6.20
2018-09-30T15:19:13.985Z,7.80
2018-09-30T15:21:41.601Z,8.77
2018-09-30T15:24:09.128Z,5.43
2018-09-30T15:26:36.927Z,5.53
2018-09-30T15:29:04.485Z,5.73
2018-09-30T15:31:31.991Z,8.13
2018-09-30T15:33:59.616Z,8.83
2018-09-30T15:36:27.116Z,4.57
2018-09-30T15:38:54.823Z,4.57
2018-09-30T15:41:22.369Z,3.50
2018-09-30T15:43:49.934Z,5.40
2018-09-30T15:46:17.573Z,3.40
2018-09-30T15:48:45.302Z,4.20
2018-09-30T15:51:12.817Z,5.00
2018-09-30T15:53:40.344Z,6.60
2018-09-30T15:56:07.870Z,6.10
2018-09-30T15:58:35.455Z,4.80
2018-09-30T16:01:02.985Z,6.33
2018-09-30T16:03:30.678Z,5.57
2018-09-30T16:05:58.197Z,6.13
2018-09-30T16:08:25.747Z,7.13
2018-09-30T16:10:53.295Z,10.10
2018-09-30T16:13:20.993Z,3.73
2018-09-30T16:15:48.619Z,6.10
2018-09-30T16:18:16.135Z,4.00
2018-09-30T16:20:43.676Z,5.93
2018-09-30T16:23:11.236Z,5.43
2018-09-30T16:25:38.957Z,2.33
2018-09-30T16:28:06.486Z,4.37
2018-09-30T16:30:34.032Z,6.57
2018-09-30T16:33:01.698Z,5.73
2018-09-30T16:35:29.410Z,5.50
2018-09-30T16:37:56.961Z,5.50
2018-09-30T16:40:24.476Z,10.23
2018-09-30T16:42:52.192Z,6.80
2018-09-30T16:45:20.197Z,6.33
2018-09-30T16:47:47.716Z,7.40
2018-09-30T16:50:15.267Z,5.33
2018-09-30T16:52:42.816Z,4.93
2018-09-30T16:55:10.562Z,3.00
2018-09-30T16:57:38.069Z,7.50
2018-09-30T17:00:06.950Z,6.17
2018-09-30T17:02:34.561Z,6.10
2018-09-30T17:05:02.093Z,6.93
2018-09-30T17:07:29.581Z,7.10
2018-09-30T17:09:57.174Z,3.03
2018-09-30T17:12:24.678Z,4.20
2018-09-30T17:14:52.293Z,4.43
2018-09-30T17:17:19.906Z,3.87
2018-09-30T17:19:47.368Z,6.33
2018-09-30T17:22:15.017Z,8.50
2018-09-30T17:24:42.518Z,6.23
2018-09-30T17:27:10.934Z,11.10
2018-09-30T17:29:38.839Z,6.90
2018-09-30T17:32:06.346Z,3.43
2018-09-30T17:34:33.888Z,3.10
2018-09-30T17:37:01.410Z,2.50
2018-09-30T17:39:28.931Z,4.73
2018-09-30T17:41:56.426Z,2.13
2018-09-30T17:44:23.945Z,5.10
2018-09-30T17:46:51.451Z,4.10
2018-09-30T17:49:19.000Z,5.40
2018-09-30T17:52:49.906Z,4.60
2018-09-30T17:55:17.748Z,4.17
2018-09-30T17:57:45.432Z,4.97
2018-09-30T18:00:13.094Z,2.93
2018-09-30T18:02:40.800Z,5.80
2018-09-30T18:05:08.356Z,8.53
2018-09-30T18:07:35.827Z,6.83
2018-09-30T18:10:03.535Z,7.60
2018-09-30T18:12:31.173Z,4.80
2018-09-30T18:14:58.695Z,6.33
2018-09-30T18:17:26.231Z,4.43
2018-09-30T18:19:53.836Z,3.30
2018-09-30T18:22:21.351Z,7.00
2018-09-30T18:24:49.012Z,10.37
2018-09-30T18:27:16.526Z,4.63
2018-09-30T18:29:43.988Z,5.70
2018-09-30T18:32:11.484Z,4.37
2018-09-30T18:34:39.044Z,5.77
2018-09-30T18:37:06.674Z,4.10
2018-09-30T18:39:34.244Z,7.37
2018-09-30T18:42:02.091Z,8.70
2018-09-30T18:44:29.540Z,9.03
2018-09-30T18:46:56.980Z,2.83
2018-09-30T18:49:24.513Z,5.43
2018-09-30T18:51:51.967Z,3.50
2018-09-30T18:54:19.637Z,3.00
2018-09-30T18:56:47.296Z,4.43
2018-09-30T18:59:15.266Z,5.53
2018-09-30T19:01:42.861Z,10.17
2018-09-30T19:04:10.461Z,11.00
2018-09-30T19:06:38.044Z,5.07
2018-09-30T19:09:07.159Z,4.70
2018-09-30T19:11:34.720Z,4.93
2018-09-30T19:14:02.376Z,3.10
2018-09-30T19:16:29.938Z,4.63
2018-09-30T19:18:57.476Z,6.43
2018-09-30T19:21:25.159Z,3.07
2018-09-30T19:23:52.666Z,3.27
2018-09-30T19:26:20.229Z,5.53
2018-09-30T19:28:48.692Z,6.63
2018-09-30T19:31:16.239Z,12.90
2018-09-30T19:33:43.877Z,6.40
2018-09-30T19:36:11.469Z,6.10
2018-09-30T19:38:39.269Z,4.87
2018-09-30T19:41:06.803Z,10.30
2018-09-30T19:43:34.418Z,4.20
2018-09-30T19:46:02.074Z,8.43
2018-09-30T19:48:30.257Z,7.33
2018-09-30T19:50:57.792Z,8.10
2018-09-30T19:53:25.461Z,5.73
2018-09-30T19:55:52.959Z,7.03
2018-09-30T19:58:20.552Z,4.53
2018-09-30T20:00:48.048Z,5.57
2018-09-30T20:03:15.603Z,4.53
2018-09-30T20:05:43.117Z,5.00
2018-09-30T20:08:10.682Z,6.13
2018-09-30T20:10:38.267Z,8.50
2018-09-30T20:13:06.782Z,6.43
2018-09-30T20:15:34.456Z,6.00
2018-09-30T20:18:02.027Z,4.80
2018-09-30T20:20:29.843Z,3.50
2018-09-30T20:22:57.456Z,5.13
2018-09-30T20:25:25.056Z,4.47
2018-09-30T20:27:52.705Z,6.93
2018-09-30T20:30:20.292Z,8.63
2018-09-30T20:32:47.972Z,5.33
2018-09-30T20:35:15.703Z,6.33
2018-09-30T20:37:43.382Z,4.43
2018-09-30T20:40:10.909Z,6.03
2018-09-30T20:42:38.517Z,4.50
2018-09-30T20:45:06.403Z,5.40
2018-09-30T20:47:34.029Z,8.03
2018-09-30T20:50:01.545Z,3.93
2018-09-30T20:52:29.117Z,4.67
2018-09-30T20:54:56.724Z,11.77
2018-09-30T20:57:24.668Z,4.27
2018-09-30T20:59:52.304Z,5.00
2018-09-30T21:02:19.983Z,7.13
2018-09-30T21:04:47.686Z,4.83
2018-09-30T21:07:15.225Z,6.43
2018-09-30T21:09:42.996Z,6.40
2018-09-30T21:12:12.442Z,7.70
2018-09-30T21:14:40.183Z,6.90
2018-09-30T21:17:07.763Z,6.23
2018-09-30T21:19:35.322Z,7.00
2018-09-30T21:22:02.877Z,7.43
2018-09-30T21:24:30.632Z,7.00
2018-09-30T21:26:58.292Z,4.73
2018-09-30T21:29:25.873Z,6.00
2018-09-30T21:31:53.396Z,5.70
2018-09-30T21:34:20.951Z,10.90
2018-09-30T21:36:48.647Z,4.67
2018-09-30T21:39:17.264Z,8.93
2018-09-30T21:41:44.773Z,5.00
2018-09-30T21:44:12.379Z,9.10
2018-09-30T21:46:40.035Z,7.20
2018-09-30T21:49:07.716Z,8.17
2018-09-30T21:51:35.419Z,7.60
2018-09-30T21:54:03.187Z,10.70
2018-09-30T21:56:30.922Z,5.83
2018-09-30T21:58:58.487Z,7.30
2018-09-30T22:01:26.254Z,7.10
2018-09-30T22:03:53.862Z,6.00
2018-09-30T22:06:22.048Z,7.60
2018-09-30T22:08:49.603Z,10.30
2018-09-30T22:11:17.124Z,7.23
2018-09-30T22:13:45.892Z,9.30
2018-09-30T22:16:13.606Z,7.07
2018-09-30T22:18:41.149Z,13.07
2018-09-30T22:21:08.745Z,8.40
2018-09-30T22:23:36.291Z,9.77
2018-09-30T22:26:03.926Z,8.60
2018-09-30T22:28:31.516Z,5.00
2018-09-30T22:31:00.743Z,5.23
2018-09-30T22:33:28.310Z,8.17
2018-09-30T22:35:55.865Z,8.37
2018-09-30T22:38:23.373Z,10.20
2018-09-30T22:40:50.954Z,7.00
2018-09-30T22:43:18.542Z,7.13
2018-09-30T22:45:46.029Z,4.63
2018-09-30T22:48:13.646Z,6.33
2018-09-30T22:50:41.324Z,6.50
2018-09-30T22:53:08.945Z,5.73
2018-09-30T22:55:36.491Z,6.20
2018-09-30T22:58:04.112Z,7.93
2018-09-30T23:00:31.633Z,7.70
2018-09-30T23:02:59.247Z,8.77
2018-09-30T23:05:27.150Z,8.83
2018-09-30T23:07:54.769Z,4.63
2018-09-30T23:10:22.514Z,8.57
2018-09-30T23:12:50.183Z,5.40
2018-09-30T23:15:17.830Z,5.70
2018-09-30T23:17:46.039Z,6.57
2018-09-30T23:20:18.557Z,7.50
2018-09-30T23:22:47.600Z,7.37
2018-09-30T23:25:15.300Z,5.37
2018-09-30T23:27:43.497Z,12.23
2018-09-30T23:30:11.801Z,9.63
2018-09-30T23:32:40.683Z,6.93
2018-09-30T23:35:08.418Z,12.20
2018-09-30T23:37:36.031Z,10.80
2018-09-30T23:40:04.958Z,8.17
2018-09-30T23:42:32.579Z,11.13
2018-09-30T23:45:00.244Z,9.70
2018-09-30T23:47:27.889Z,6.73
2018-09-30T23:49:55.727Z,6.27
2018-09-30T23:52:23.458Z,5.57
2018-09-30T23:54:51.088Z,5.50
2018-09-30T23:57:18.626Z,9.43
2018-09-30T23:59:46.215Z,6.90
